createdAt,value
2023-03-12T00:01:24.479Z,64.20
2023-03-12T00:03:51.981Z,64.19
2023-03-12T00:06:19.203Z,64.35
2023-03-12T00:08:46.099Z,64.41
2023-03-12T00:11:18.622Z,64.75
2023-03-12T00:13:48.792Z,64.15
2023-03-12T00:16:16.132Z,63.74
2023-03-12T00:18:44.163Z,64.27
2023-03-12T00:21:11.146Z,64.49
2023-03-12T00:23:37.842Z,64.62
2023-03-12T00:26:08.202Z,64.83
2023-03-12T00:28:35.167Z,64.40
2023-03-12T00:31:03.374Z,64.71
2023-03-12T00:33:30.109Z,64.34
2023-03-12T00:36:00.447Z,64.82
2023-03-12T00:38:27.077Z,64.29
2023-03-12T00:40:53.708Z,64.44
2023-03-12T00:43:20.369Z,64.48
2023-03-12T00:45:46.991Z,64.39
2023-03-12T00:48:13.651Z,63.98
2023-03-12T00:50:40.262Z,65.06
2023-03-12T00:53:07.046Z,64.13
2023-03-12T00:55:33.686Z,64.63
2023-03-12T00:58:00.322Z,64.63
2023-03-12T01:00:27.063Z,65.17
2023-03-12T01:02:53.940Z,65.23
2023-03-12T01:05:20.717Z,64.98
2023-03-12T01:07:47.349Z,64.72
2023-03-12T01:10:17.533Z,65.71
2023-03-12T01:12:44.277Z,65.10
2023-03-12T01:15:15.051Z,65.04
2023-03-12T01:17:41.700Z,65.41
2023-03-12T01:20:09.510Z,65.44
2023-03-12T01:22:37.124Z,65.74
2023-03-12T01:25:04.376Z,65.57
2023-03-12T01:27:31.076Z,66.12
2023-03-12T01:29:57.748Z,65.89
2023-03-12T01:32:24.429Z,64.87
2023-03-12T01:34:51.113Z,64.68
2023-03-12T01:37:17.743Z,65.01
2023-03-12T01:39:44.397Z,65.44
2023-03-12T01:42:11.102Z,65.06
2023-03-12T01:44:58.753Z,65.47
2023-03-12T01:47:26.641Z,64.69
2023-03-12T01:49:55.873Z,65.46
2023-03-12T01:52:27.400Z,64.95
2023-03-12T01:55:05.692Z,64.54
2023-03-12T01:57:42.144Z,65.81
2023-03-12T02:00:12.247Z,65.31
2023-03-12T02:02:39.688Z,65.54
2023-03-12T02:05:15.227Z,65.50
2023-03-12T02:07:41.877Z,65.32
2023-03-12T02:10:09.218Z,65.66
2023-03-12T02:12:35.813Z,66.39
2023-03-12T02:15:02.592Z,66.33
2023-03-12T02:17:30.376Z,66.09
2023-03-12T02:20:27.998Z,66.10
2023-03-12T02:23:13.342Z,66.31
2023-03-12T02:25:42.497Z,65.92
2023-03-12T02:28:13.911Z,66.71
2023-03-12T02:30:43.288Z,65.51
2023-03-12T02:33:11.774Z,66.29
2023-03-12T02:35:38.505Z,65.95
2023-03-12T02:38:37.162Z,66.78
2023-03-12T02:41:29.068Z,65.85
2023-03-12T02:44:11.293Z,66.29
2023-03-12T02:46:58.356Z,65.66
2023-03-12T02:49:28.927Z,66.60
2023-03-12T02:51:56.018Z,66.28
2023-03-12T02:54:24.199Z,66.33
2023-03-12T02:56:52.171Z,66.12
2023-03-12T02:59:22.749Z,65.63
2023-03-12T03:01:53.145Z,65.41
2023-03-12T03:04:20.051Z,65.69
2023-03-12T03:06:48.385Z,66.45
2023-03-12T03:09:15.197Z,65.35
2023-03-12T03:11:42.116Z,65.21
2023-03-12T03:14:08.857Z,66.03
2023-03-12T03:16:35.932Z,66.35
2023-03-12T03:19:02.589Z,66.10
2023-03-12T03:21:30.223Z,65.82
2023-03-12T03:23:56.858Z,65.72
2023-03-12T03:26:24.830Z,65.14
2023-03-12T03:28:51.552Z,65.22
2023-03-12T03:31:18.781Z,65.99
2023-03-12T03:33:45.489Z,66.09
2023-03-12T03:36:14.966Z,66.39
2023-03-12T03:38:42.566Z,65.52
2023-03-12T03:41:09.222Z,65.67
2023-03-12T03:43:35.823Z,66.27
2023-03-12T03:46:05.409Z,66.14
2023-03-12T03:48:32.265Z,65.52
2023-03-12T03:51:07.753Z,65.66
2023-03-12T03:53:34.775Z,65.95
2023-03-12T03:56:09.614Z,65.27
2023-03-12T03:58:36.302Z,66.51
2023-03-12T04:01:03.548Z,65.66
2023-03-12T04:03:30.553Z,65.81
2023-03-12T04:06:00.164Z,66.05
2023-03-12T04:08:27.079Z,65.37
2023-03-12T04:10:53.805Z,65.82
2023-03-12T04:13:20.884Z,65.98
2023-03-12T04:15:49.227Z,66.55
2023-03-12T04:18:16.692Z,66.34
2023-03-12T04:20:43.738Z,65.23
2023-03-12T04:23:11.177Z,65.32
2023-03-12T04:25:38.385Z,66.57
2023-03-12T04:28:05.385Z,66.42
2023-03-12T04:30:32.113Z,66.09
2023-03-12T04:32:58.743Z,65.71
2023-03-12T04:35:25.404Z,66.53
2023-03-12T04:37:52.076Z,66.00
2023-03-12T04:40:20.021Z,65.45
2023-03-12T04:42:47.920Z,65.40
2023-03-12T04:45:15.213Z,66.56
2023-03-12T04:47:41.904Z,66.24
2023-03-12T04:50:09.475Z,65.66
2023-03-12T04:52:36.095Z,65.58
2023-03-12T04:55:02.849Z,66.13
2023-03-12T04:57:29.476Z,66.48
2023-03-12T04:59:56.087Z,66.67
2023-03-12T05:02:22.768Z,66.34
2023-03-12T05:04:49.381Z,65.78
2023-03-12T05:07:16.006Z,66.02
2023-03-12T05:09:44.195Z,66.24
2023-03-12T05:12:11.090Z,66.62
2023-03-12T05:14:39.556Z,65.78
2023-03-12T05:17:06.976Z,66.41
2023-03-12T05:19:33.723Z,66.25
2023-03-12T05:22:00.420Z,66.28
2023-03-12T05:24:27.565Z,67.12
2023-03-12T05:26:54.273Z,66.97
2023-03-12T05:29:20.991Z,66.82
2023-03-12T05:31:47.755Z,67.16
2023-03-12T05:34:14.509Z,66.56
2023-03-12T05:36:41.340Z,66.12
2023-03-12T05:39:08.314Z,66.36
2023-03-12T05:41:35.075Z,66.30
2023-03-12T05:44:01.762Z,66.82
2023-03-12T05:46:29.081Z,67.00
2023-03-12T05:48:55.964Z,67.03
2023-03-12T05:51:22.652Z,67.16
2023-03-12T05:53:49.351Z,66.53
2023-03-12T05:56:17.889Z,67.32
2023-03-12T05:58:44.797Z,67.29
2023-03-12T06:01:26.031Z,67.16
2023-03-12T06:03:52.687Z,66.40
2023-03-12T06:06:19.668Z,66.49
2023-03-12T06:08:46.683Z,67.30
2023-03-12T06:11:13.894Z,66.56
2023-03-12T06:13:40.794Z,66.79
2023-03-12T06:16:12.340Z,67.60
2023-03-12T06:18:39.031Z,67.41
2023-03-12T06:21:11.384Z,67.46
2023-03-12T06:23:38.707Z,66.98
2023-03-12T06:26:06.054Z,67.08
2023-03-12T06:28:34.014Z,67.16
2023-03-12T06:31:01.102Z,67.47
2023-03-12T06:33:28.450Z,67.87
2023-03-12T06:35:56.968Z,67.90
2023-03-12T06:38:23.682Z,67.54
2023-03-12T06:41:13.788Z,67.82
2023-03-12T06:43:41.521Z,68.22
2023-03-12T06:46:11.902Z,68.02
2023-03-12T06:48:41.361Z,67.85
2023-03-12T06:51:09.488Z,68.27
2023-03-12T06:53:36.100Z,68.68
2023-03-12T06:56:03.313Z,68.89
2023-03-12T06:58:30.391Z,68.43
2023-03-12T07:00:57.465Z,68.71
2023-03-12T07:03:24.900Z,68.81
2023-03-12T07:05:51.847Z,69.14
2023-03-12T07:08:18.914Z,68.92
2023-03-12T07:10:46.096Z,69.42
2023-03-12T07:13:13.111Z,69.66
2023-03-12T07:15:39.805Z,69.87
2023-03-12T07:18:08.165Z,70.12
2023-03-12T07:20:38.653Z,69.80
2023-03-12T07:23:05.790Z,70.54
2023-03-12T07:25:36.333Z,70.26
2023-03-12T07:28:03.502Z,70.49
2023-03-12T07:30:33.548Z,70.73
2023-03-12T07:33:04.283Z,70.79
2023-03-12T07:35:31.514Z,70.88
2023-03-12T07:37:59.270Z,71.37
2023-03-12T07:40:26.465Z,70.88
2023-03-12T07:42:53.813Z,71.16
2023-03-12T07:45:20.714Z,70.76
2023-03-12T07:47:48.229Z,71.41
2023-03-12T07:50:16.006Z,71.39
2023-03-12T07:52:42.789Z,71.10
2023-03-12T07:55:10.433Z,71.19
2023-03-12T07:57:38.482Z,71.57
2023-03-12T08:00:08.742Z,71.43
2023-03-12T08:02:35.462Z,71.23
2023-03-12T08:05:02.940Z,71.28
2023-03-12T08:07:32.504Z,71.29
2023-03-12T08:10:00.152Z,71.51
2023-03-12T08:12:28.035Z,71.84
2023-03-12T08:14:54.763Z,72.51
2023-03-12T08:17:21.851Z,72.69
2023-03-12T08:19:48.609Z,72.36
2023-03-12T08:22:15.292Z,72.20
2023-03-12T08:24:41.956Z,71.43
2023-03-12T08:27:08.854Z,71.57
2023-03-12T08:29:35.503Z,71.02
2023-03-12T08:32:05.356Z,71.41
2023-03-12T08:34:35.647Z,71.70
2023-03-12T08:37:03.034Z,72.10
2023-03-12T08:39:30.271Z,72.48
2023-03-12T08:41:56.869Z,71.54
2023-03-12T08:44:24.487Z,72.27
2023-03-12T08:46:52.010Z,73.01
2023-03-12T08:49:19.691Z,72.60
2023-03-12T08:51:46.373Z,71.84
2023-03-12T08:54:13.264Z,73.09
2023-03-12T08:56:43.711Z,74.35
2023-03-12T08:59:11.784Z,74.97
2023-03-12T09:01:39.509Z,74.58
2023-03-12T09:04:07.286Z,73.84
2023-03-12T09:06:35.426Z,73.88
2023-03-12T09:09:05.725Z,73.10
2023-03-12T09:11:33.941Z,72.67
2023-03-12T09:14:49.958Z,70.67
2023-03-12T09:16:48.484Z,69.84
2023-03-12T09:19:15.818Z,69.40
2023-03-12T09:21:43.013Z,69.02
2023-03-12T09:24:11.305Z,68.94
2023-03-12T09:26:37.967Z,68.66
2023-03-12T09:29:04.588Z,69.02
2023-03-12T09:31:31.247Z,68.66
2023-03-12T09:33:57.883Z,68.30
2023-03-12T09:36:24.506Z,68.27
2023-03-12T09:38:51.136Z,68.44
2023-03-12T09:41:21.716Z,67.97
2023-03-12T09:44:31.597Z,67.30
2023-03-12T09:47:03.284Z,67.28
2023-03-12T09:49:47.032Z,67.28
2023-03-12T09:52:24.568Z,66.88
2023-03-12T09:55:28.851Z,67.31
2023-03-12T09:57:56.959Z,67.15
2023-03-12T10:00:30.092Z,67.23
2023-03-12T10:03:12.893Z,67.18
2023-03-12T10:06:11.254Z,66.99
2023-03-12T10:08:37.826Z,66.38
2023-03-12T10:11:22.201Z,66.26
2023-03-12T10:14:26.176Z,66.36
2023-03-12T10:17:15.685Z,66.48
2023-03-12T10:20:16.361Z,65.96
2023-03-12T10:22:55.516Z,66.05
2023-03-12T10:26:05.836Z,65.58
2023-03-12T10:28:45.773Z,65.57
2023-03-12T10:31:29.643Z,65.73
2023-03-12T10:33:59.627Z,65.23
2023-03-12T10:36:35.026Z,65.38
2023-03-12T10:39:01.990Z,64.95
2023-03-12T10:41:34.218Z,65.01
2023-03-12T10:44:07.774Z,64.43
2023-03-12T10:46:37.173Z,63.47
2023-03-12T10:49:37.671Z,63.75
2023-03-12T10:52:17.227Z,63.38
2023-03-12T10:54:47.112Z,63.71
2023-03-12T10:57:17.960Z,63.06
2023-03-12T10:59:47.620Z,63.33
2023-03-12T11:02:30.793Z,62.78
2023-03-12T11:04:58.915Z,62.11
2023-03-12T11:07:28.874Z,62.30
2023-03-12T11:10:17.750Z,61.47
2023-03-12T11:13:01.562Z,61.50
2023-03-12T11:15:40.082Z,61.13
2023-03-12T11:18:40.529Z,60.46
2023-03-12T11:21:10.057Z,60.52
2023-03-12T11:23:48.237Z,60.45
2023-03-12T11:26:23.976Z,59.00
2023-03-12T11:29:06.331Z,58.52
2023-03-12T11:31:41.569Z,57.95
2023-03-12T11:34:33.937Z,57.40
2023-03-12T11:37:26.410Z,57.71
2023-03-12T11:40:14.426Z,57.31
2023-03-12T11:42:52.844Z,56.98
2023-03-12T11:45:31.482Z,56.85
2023-03-12T11:48:25.478Z,57.09
2023-03-12T11:51:06.723Z,57.54
2023-03-12T11:53:58.001Z,57.27
2023-03-12T11:56:30.645Z,56.93
2023-03-12T11:59:07.687Z,55.93
2023-03-12T12:01:58.159Z,54.97
2023-03-12T12:04:55.830Z,55.61
2023-03-12T12:07:44.336Z,55.46
2023-03-12T12:10:36.595Z,54.41
2023-03-12T12:13:22.428Z,54.31
2023-03-12T12:16:07.480Z,53.88
2023-03-12T12:18:50.962Z,53.77
2023-03-12T12:21:49.351Z,53.36
2023-03-12T12:24:46.774Z,53.09
2023-03-12T12:27:42.903Z,52.36
2023-03-12T12:30:24.305Z,52.32
2023-03-12T12:33:00.168Z,52.39
2023-03-12T12:35:43.280Z,52.57
2023-03-12T12:38:16.581Z,52.57
2023-03-12T12:40:51.503Z,51.68
2023-03-12T12:43:23.937Z,52.01
2023-03-12T12:45:53.770Z,51.81
2023-03-12T12:48:36.775Z,52.12
2023-03-12T12:51:08.309Z,52.03
2023-03-12T12:53:50.358Z,51.83
2023-03-12T12:56:29.399Z,51.91
2023-03-12T12:59:31.673Z,52.17
2023-03-12T13:01:59.786Z,51.74
2023-03-12T13:04:32.350Z,51.65
2023-03-12T13:07:24.087Z,51.87
2023-03-12T13:09:57.091Z,51.46
2023-03-12T13:12:32.720Z,51.60
2023-03-12T13:15:01.524Z,51.36
2023-03-12T13:17:34.343Z,51.27
2023-03-12T13:20:10.943Z,50.88
2023-03-12T13:23:05.311Z,49.99
2023-03-12T13:26:01.552Z,50.03
2023-03-12T13:28:30.354Z,50.42
2023-03-12T13:30:58.803Z,50.55
2023-03-12T13:33:45.489Z,50.17
2023-03-12T13:36:23.894Z,50.01
2023-03-12T13:38:59.891Z,50.05
2023-03-12T13:41:34.373Z,49.97
2023-03-12T13:44:21.816Z,49.84
2023-03-12T13:47:18.522Z,50.01
2023-03-12T13:50:01.600Z,50.02
2023-03-12T13:52:37.895Z,49.43
2023-03-12T13:55:08.100Z,49.02
2023-03-12T13:57:55.229Z,49.49
2023-03-12T14:00:55.174Z,49.54
2023-03-12T14:03:27.710Z,49.45
2023-03-12T14:06:06.608Z,48.83
2023-03-12T14:08:45.011Z,49.09
2023-03-12T14:11:34.468Z,48.79
2023-03-12T14:14:24.173Z,48.68
2023-03-12T14:16:54.275Z,48.85
2023-03-12T14:19:25.379Z,49.16
2023-03-12T14:21:54.039Z,48.49
2023-03-12T14:24:28.792Z,47.64
2023-03-12T14:26:56.984Z,47.88
2023-03-12T14:29:41.406Z,48.34
2023-03-12T14:32:24.222Z,48.32
2023-03-12T14:35:15.602Z,47.49
2023-03-12T14:37:56.757Z,47.31
2023-03-12T14:40:45.984Z,46.94
2023-03-12T14:43:30.958Z,47.63
2023-03-12T14:46:00.243Z,47.72
2023-03-12T14:48:32.500Z,47.80
2023-03-12T14:51:00.726Z,47.38
2023-03-12T14:53:29.623Z,47.19
2023-03-12T14:56:34.850Z,47.49
2023-03-12T14:59:23.187Z,47.70
2023-03-12T15:01:50.171Z,47.73
2023-03-12T15:04:20.889Z,47.02
2023-03-12T15:06:51.039Z,47.12
2023-03-12T15:09:22.133Z,46.49
2023-03-12T15:11:58.843Z,45.92
2023-03-12T15:14:29.368Z,46.46
2023-03-12T15:16:59.398Z,45.83
2023-03-12T15:19:32.736Z,45.89
2023-03-12T15:22:00.028Z,45.33
2023-03-12T15:24:28.502Z,45.35
2023-03-12T15:26:55.181Z,45.81
2023-03-12T15:29:26.904Z,45.65
2023-03-12T15:32:00.994Z,45.76
2023-03-12T15:34:46.413Z,45.31
2023-03-12T15:37:32.430Z,45.30
2023-03-12T15:40:06.897Z,45.76
2023-03-12T15:42:46.172Z,45.79
2023-03-12T15:45:31.317Z,45.65
2023-03-12T15:47:58.081Z,45.22
2023-03-12T15:50:31.146Z,45.56
2023-03-12T15:52:59.260Z,45.51
2023-03-12T15:55:30.693Z,45.25
2023-03-12T15:57:59.587Z,45.57
2023-03-12T16:00:26.793Z,45.57
2023-03-12T16:02:54.906Z,45.65
2023-03-12T16:05:26.162Z,45.32
2023-03-12T16:07:52.908Z,45.31
2023-03-12T16:10:23.012Z,45.52
2023-03-12T16:12:52.621Z,45.37
2023-03-12T16:15:29.641Z,45.07
2023-03-12T16:17:56.265Z,44.63
2023-03-12T16:20:22.878Z,45.09
2023-03-12T16:22:49.506Z,44.96
2023-03-12T16:25:16.215Z,44.97
2023-03-12T16:27:55.295Z,45.38
2023-03-12T16:30:34.153Z,45.62
2023-03-12T16:33:02.283Z,45.87
2023-03-12T16:35:31.310Z,46.03
2023-03-12T16:38:01.359Z,45.96
2023-03-12T16:40:34.971Z,46.35
2023-03-12T16:43:05.861Z,46.49
2023-03-12T16:45:35.866Z,46.66
2023-03-12T16:48:05.396Z,46.58
2023-03-12T16:50:32.387Z,46.78
2023-03-12T16:52:59.027Z,47.01
2023-03-12T16:55:39.578Z,46.68
2023-03-12T16:58:07.195Z,46.81
2023-03-12T17:00:34.483Z,46.52
2023-03-12T17:03:01.933Z,46.50
2023-03-12T17:05:30.139Z,46.28
2023-03-12T17:07:57.644Z,46.25
2023-03-12T17:10:25.815Z,46.63
2023-03-12T17:12:53.487Z,46.12
2023-03-12T17:15:22.933Z,46.12
2023-03-12T17:17:50.118Z,46.80
2023-03-12T17:20:19.525Z,46.35
2023-03-12T17:22:46.412Z,46.35
2023-03-12T17:25:30.715Z,46.19
2023-03-12T17:27:57.979Z,46.60
2023-03-12T17:30:25.456Z,46.49
2023-03-12T17:32:53.348Z,46.17
2023-03-12T17:35:20.567Z,46.41
2023-03-12T17:37:51.107Z,46.21
2023-03-12T17:40:18.108Z,46.31
2023-03-12T17:42:44.913Z,45.85
2023-03-12T17:45:11.652Z,46.01
2023-03-12T17:47:38.862Z,46.13
2023-03-12T17:50:06.987Z,46.37
2023-03-12T17:52:34.269Z,46.64
2023-03-12T17:55:01.239Z,45.97
2023-03-12T17:57:28.294Z,46.73
2023-03-12T17:59:55.156Z,46.60
2023-03-12T18:02:21.805Z,46.62
2023-03-12T18:04:48.673Z,46.79
2023-03-12T18:07:15.304Z,46.92
2023-03-12T18:09:41.988Z,47.37
2023-03-12T18:12:11.263Z,47.20
2023-03-12T18:14:38.257Z,46.91
2023-03-12T18:17:05.165Z,47.02
2023-03-12T18:19:31.897Z,47.17
2023-03-12T18:21:58.614Z,47.13
2023-03-12T18:24:25.309Z,47.59
2023-03-12T18:26:52.581Z,47.01
2023-03-12T18:29:19.227Z,47.58
2023-03-12T18:31:45.916Z,47.67
2023-03-12T18:34:12.568Z,47.44
2023-03-12T18:36:39.214Z,47.43
2023-03-12T18:39:06.617Z,47.69
2023-03-12T18:41:33.618Z,47.42
2023-03-12T18:44:00.689Z,47.48
2023-03-12T18:46:28.022Z,47.85
2023-03-12T18:48:54.856Z,47.96
2023-03-12T18:51:21.478Z,47.83
2023-03-12T18:53:48.189Z,47.45
2023-03-12T18:56:14.818Z,47.44
2023-03-12T18:58:41.507Z,47.84
2023-03-12T19:01:08.242Z,47.72
2023-03-12T19:03:36.535Z,48.15
2023-03-12T19:06:12.475Z,47.79
2023-03-12T19:08:39.548Z,48.06
2023-03-12T19:11:11.571Z,48.20
2023-03-12T19:13:38.678Z,48.45
2023-03-12T19:16:08.778Z,47.86
2023-03-12T19:18:36.754Z,48.03
2023-03-12T19:21:03.634Z,47.81
2023-03-12T19:23:30.261Z,48.07
2023-03-12T19:25:56.884Z,48.09
2023-03-12T19:28:23.545Z,47.85
2023-03-12T19:30:50.197Z,48.34
2023-03-12T19:33:16.858Z,48.67
2023-03-12T19:35:43.554Z,48.39
2023-03-12T19:38:10.230Z,49.00
2023-03-12T19:40:36.868Z,48.73
2023-03-12T19:43:03.513Z,48.40
2023-03-12T19:45:30.192Z,48.84
2023-03-12T19:47:57.042Z,49.01
2023-03-12T19:50:24.210Z,48.46
2023-03-12T19:52:50.944Z,49.00
2023-03-12T19:55:17.806Z,48.97
2023-03-12T19:57:44.491Z,48.99
2023-03-12T20:00:12.321Z,49.72
2023-03-12T20:02:39.909Z,49.42
2023-03-12T20:05:08.009Z,49.18
2023-03-12T20:07:35.210Z,49.32
2023-03-12T20:10:01.851Z,49.52
2023-03-12T20:12:28.482Z,49.18
2023-03-12T20:14:55.099Z,49.33
2023-03-12T20:17:21.792Z,49.43
2023-03-12T20:19:48.408Z,49.72
2023-03-12T20:22:15.376Z,49.90
2023-03-12T20:24:42.051Z,49.78
2023-03-12T20:27:08.693Z,49.95
2023-03-12T20:29:35.319Z,49.82
2023-03-12T20:32:01.955Z,49.63
2023-03-12T20:34:28.629Z,49.57
2023-03-12T20:36:55.237Z,49.98
2023-03-12T20:39:21.824Z,49.86
2023-03-12T20:41:49.330Z,50.12
2023-03-12T20:44:16.698Z,50.28
2023-03-12T20:46:43.337Z,50.06
2023-03-12T20:49:09.988Z,50.29
2023-03-12T20:51:36.608Z,50.62
2023-03-12T20:54:03.272Z,49.85
2023-03-12T20:56:29.953Z,50.38
2023-03-12T20:58:57.231Z,49.91
2023-03-12T21:01:24.506Z,50.28
2023-03-12T21:03:51.467Z,50.43
2023-03-12T21:06:18.220Z,50.35
2023-03-12T21:08:44.807Z,50.61
2023-03-12T21:11:11.538Z,50.15
2023-03-12T21:13:38.152Z,50.22
2023-03-12T21:16:06.003Z,50.25
2023-03-12T21:18:33.058Z,50.59
2023-03-12T21:21:04.623Z,50.16
2023-03-12T21:23:32.266Z,50.39
2023-03-12T21:26:01.015Z,50.48
2023-03-12T21:28:28.584Z,50.76
2023-03-12T21:30:55.623Z,50.77
2023-03-12T21:33:22.262Z,50.65
2023-03-12T21:35:48.947Z,50.72
2023-03-12T21:38:15.686Z,51.16
2023-03-12T21:40:42.342Z,50.45
2023-03-12T21:43:08.960Z,51.04
2023-03-12T21:45:35.589Z,51.16
2023-03-12T21:48:02.226Z,50.84
2023-03-12T21:50:28.925Z,51.24
2023-03-12T21:52:55.549Z,50.93
2023-03-12T21:55:22.179Z,51.08
2023-03-12T21:57:48.800Z,51.11
2023-03-12T22:00:15.723Z,50.86
2023-03-12T22:02:44.633Z,51.44
2023-03-12T22:05:12.173Z,50.85
2023-03-12T22:07:39.061Z,51.01
2023-03-12T22:10:07.544Z,51.42
2023-03-12T22:12:34.182Z,51.39
2023-03-12T22:15:00.842Z,51.71
2023-03-12T22:17:27.802Z,51.51
2023-03-12T22:19:54.634Z,51.46
2023-03-12T22:22:21.276Z,51.65
2023-03-12T22:24:47.929Z,51.62
2023-03-12T22:27:14.547Z,51.82
2023-03-12T22:29:42.731Z,51.58
2023-03-12T22:32:09.369Z,51.96
2023-03-12T22:34:36.081Z,52.05
2023-03-12T22:37:02.911Z,51.69
2023-03-12T22:39:29.518Z,51.75
2023-03-12T22:41:56.191Z,52.08
2023-03-12T22:44:22.829Z,51.65
2023-03-12T22:46:51.070Z,51.81
2023-03-12T22:49:17.792Z,52.63
2023-03-12T22:51:44.421Z,52.17
2023-03-12T22:54:11.072Z,52.14
2023-03-12T22:56:37.719Z,52.12
2023-03-12T22:59:04.384Z,51.87
2023-03-12T23:01:31.162Z,51.76
2023-03-12T23:03:57.913Z,52.58
2023-03-12T23:06:27.015Z,52.56
2023-03-12T23:08:55.171Z,52.23
2023-03-12T23:11:25.287Z,52.36
2023-03-12T23:13:52.748Z,52.46
2023-03-12T23:16:22.110Z,52.22
2023-03-12T23:18:49.237Z,52.31
2023-03-12T23:21:19.050Z,52.26
2023-03-12T23:23:46.158Z,52.48
2023-03-12T23:26:19.110Z,52.48
2023-03-12T23:28:51.148Z,52.59
2023-03-12T23:31:18.034Z,52.48
2023-03-12T23:33:45.121Z,52.82
2023-03-12T23:36:21.069Z,52.54
2023-03-12T23:38:48.764Z,52.93
2023-03-12T23:41:19.547Z,52.92
2023-03-12T23:43:46.382Z,53.17
2023-03-12T23:46:16.930Z,53.23
2023-03-12T23:48:45.507Z,53.18
2023-03-12T23:51:22.320Z,53.12
2023-03-12T23:53:51.190Z,53.37
2023-03-12T23:56:23.460Z,53.24
2023-03-12T23:58:51.079Z,53.16
